Time;durP1;ratioP1;P1;durP2;ratioP2;P2;SDS_P1;SDS_P2;PMS_P1;PMS_P2;Temp;Humidity;BMP_temperature;BMP_pressure;BME280_temperature;BME280_humidity;BME280_pressure;Samples;Min_cycle;Max_cycle;Signal;HPM_P1;HPM_P2
2022/12/19 00:01:20;;;;;;;62.85;29.33;;;;;;;;;;5019881;28;20210;-69
2022/12/19 00:03:47;;;;;;;60.20;28.38;;;;;;;;;;5019690;28;20285;-69
2022/12/19 00:06:15;;;;;;;60.20;30.10;;;;;;;;;;5019862;28;20462;-69
2022/12/19 00:08:42;;;;;;;58.50;27.58;;;;;;;;;;5019594;28;20506;-69
2022/12/19 00:11:09;;;;;;;56.85;28.55;;;;;;;;;;5019735;28;20218;-69
2022/12/19 00:13:35;;;;;;;59.03;28.92;;;;;;;;;;5019908;28;20498;-69
2022/12/19 00:16:02;;;;;;;56.53;27.80;;;;;;;;;;5019573;28;20205;-69
2022/12/19 00:18:28;;;;;;;60.40;28.90;;;;;;;;;;5019517;28;20287;-69
2022/12/19 00:20:55;;;;;;;59.03;29.08;;;;;;;;;;5019646;28;20210;-69
2022/12/19 00:23:23;;;;;;;58.88;29.25;;;;;;;;;;5018904;28;20383;-69
2022/12/19 00:25:49;;;;;;;59.65;29.48;;;;;;;;;;5019652;28;20199;-68
2022/12/19 00:28:16;;;;;;;56.25;27.48;;;;;;;;;;5019297;28;20444;-68
2022/12/19 00:30:42;;;;;;;55.08;28.10;;;;;;;;;;5019777;28;20207;-69
2022/12/19 00:33:08;;;;;;;56.95;27.88;;;;;;;;;;5019746;28;20198;-69
2022/12/19 00:35:34;;;;;;;61.35;29.05;;;;;;;;;;5019655;28;20201;-69
2022/12/19 00:38:01;;;;;;;54.38;28.52;;;;;;;;;;5019342;28;20198;-69
2022/12/19 00:40:29;;;;;;;53.58;27.85;;;;;;;;;;5019327;28;20198;-68
2022/12/19 00:42:55;;;;;;;58.92;29.70;;;;;;;;;;5019129;28;20527;-68
2022/12/19 00:45:22;;;;;;;61.42;29.67;;;;;;;;;;5019342;28;20549;-68
2022/12/19 00:47:48;;;;;;;64.57;28.67;;;;;;;;;;5019370;28;20205;-68
2022/12/19 00:50:14;;;;;;;61.10;28.38;;;;;;;;;;5018937;28;20202;-69
2022/12/19 00:52:40;;;;;;;58.67;28.92;;;;;;;;;;5019224;28;20548;-69
2022/12/19 00:55:07;;;;;;;61.65;30.83;;;;;;;;;;5019225;28;20214;-69
2022/12/19 00:57:35;;;;;;;58.08;30.08;;;;;;;;;;5019036;28;20206;-68
2022/12/19 01:00:01;;;;;;;61.70;31.20;;;;;;;;;;5019036;28;20447;-68
2022/12/19 01:02:27;;;;;;;69.10;32.35;;;;;;;;;;5019196;28;20212;-68
2022/12/19 01:04:53;;;;;;;60.95;30.48;;;;;;;;;;5019167;28;20230;-69
2022/12/19 01:07:20;;;;;;;62.30;30.50;;;;;;;;;;5019015;28;20202;-69
2022/12/19 01:09:46;;;;;;;58.45;29.85;;;;;;;;;;5018831;28;20371;-68
2022/12/19 01:14:58;;;;;;;64.72;30.15;;;;;;;;;;5018997;28;20194;-68
2022/12/19 01:17:24;;;;;;;58.67;28.77;;;;;;;;;;5019152;28;20195;-68
2022/12/19 01:19:50;;;;;;;52.38;26.73;;;;;;;;;;5018875;28;20206;-68
2022/12/19 01:22:17;;;;;;;56.35;28.05;;;;;;;;;;5019034;28;20205;-68
2022/12/19 01:24:43;;;;;;;56.20;27.80;;;;;;;;;;5018869;28;20219;-68
2022/12/19 01:27:09;;;;;;;51.72;28.00;;;;;;;;;;5018939;28;20205;-69
2022/12/19 01:29:35;;;;;;;60.13;28.20;;;;;;;;;;5018503;28;20207;-68
2022/12/19 01:32:03;;;;;;;58.97;30.02;;;;;;;;;;5018955;28;20397;-68
2022/12/19 01:34:29;;;;;;;59.13;29.10;;;;;;;;;;5018753;28;20201;-68
2022/12/19 01:36:56;;;;;;;59.20;29.75;;;;;;;;;;5021953;28;20206;-68
2022/12/19 01:39:22;;;;;;;66.95;31.95;;;;;;;;;;5021682;28;20206;-68
2022/12/19 01:41:48;;;;;;;57.13;29.05;;;;;;;;;;5021978;28;20211;-68
2022/12/19 01:44:14;;;;;;;56.22;29.15;;;;;;;;;;5021858;28;20568;-69
2022/12/19 01:46:43;;;;;;;56.53;29.23;;;;;;;;;;5021919;28;20199;-69
2022/12/19 01:49:14;;;;;;;55.97;28.08;;;;;;;;;;5021645;28;20211;-68
2022/12/19 01:51:43;;;;;;;57.85;28.58;;;;;;;;;;5021658;28;20213;-68
2022/12/19 01:54:11;;;;;;;59.03;28.38;;;;;;;;;;5022035;28;20198;-68
2022/12/19 01:56:39;;;;;;;59.72;28.40;;;;;;;;;;5021715;28;20203;-69
2022/12/19 01:59:07;;;;;;;57.55;28.15;;;;;;;;;;5021442;28;20213;-69
2022/12/19 02:01:33;;;;;;;58.67;28.02;;;;;;;;;;5021465;28;20199;-69
2022/12/19 02:04:01;;;;;;;62.38;28.33;;;;;;;;;;5021899;28;20207;-69
2022/12/19 02:06:30;;;;;;;57.08;26.52;;;;;;;;;;5021674;28;20206;-69
2022/12/19 02:08:56;;;;;;;53.38;27.08;;;;;;;;;;5021354;28;20217;-68
2022/12/19 02:11:35;;;;;;;51.50;25.23;;;;;;;;;;5021521;28;20198;-68
2022/12/19 02:14:02;;;;;;;54.33;27.02;;;;;;;;;;5039912;28;20198;-68
2022/12/19 02:16:34;;;;;;;52.53;26.67;;;;;;;;;;5041354;28;20233;-68
2022/12/19 02:19:05;;;;;;;54.50;27.13;;;;;;;;;;5041160;28;20505;-68
2022/12/19 02:21:38;;;;;;;53.20;25.75;;;;;;;;;;5041227;28;20220;-68
2022/12/19 02:24:15;;;;;;;50.70;25.60;;;;;;;;;;5041142;27;20205;-68
2022/12/19 02:26:47;;;;;;;53.65;26.48;;;;;;;;;;5041331;28;20193;-68
2022/12/19 02:29:20;;;;;;;54.47;27.08;;;;;;;;;;5040764;28;20232;-69
2022/12/19 02:31:50;;;;;;;56.17;27.52;;;;;;;;;;5041058;28;20198;-68
2022/12/19 02:34:21;;;;;;;55.40;27.60;;;;;;;;;;5040914;28;20194;-69
2022/12/19 02:36:50;;;;;;;51.40;25.50;;;;;;;;;;5040915;28;20198;-69
2022/12/19 02:39:19;;;;;;;48.67;24.73;;;;;;;;;;5040998;28;20204;-69
2022/12/19 02:41:47;;;;;;;53.83;25.38;;;;;;;;;;5041052;28;20204;-69
2022/12/19 02:44:18;;;;;;;49.15;24.02;;;;;;;;;;5040725;28;20198;-69
2022/12/19 02:46:45;;;;;;;49.90;24.58;;;;;;;;;;5040415;28;20205;-68
2022/12/19 02:49:13;;;;;;;47.90;24.85;;;;;;;;;;5040524;27;20204;-69
2022/12/19 02:51:40;;;;;;;56.90;25.50;;;;;;;;;;5040933;28;20198;-69
2022/12/19 02:54:07;;;;;;;51.30;24.58;;;;;;;;;;5041018;28;20208;-69
2022/12/19 02:56:40;;;;;;;55.20;25.30;;;;;;;;;;5040487;28;20278;-69
2022/12/19 02:59:27;;;;;;;53.70;24.80;;;;;;;;;;5040422;28;20205;-69
2022/12/19 03:01:57;;;;;;;51.95;25.00;;;;;;;;;;5043529;28;20225;-68
2022/12/19 03:04:30;;;;;;;54.92;26.58;;;;;;;;;;5040687;28;20645;-69
2022/12/19 03:07:00;;;;;;;57.95;27.23;;;;;;;;;;5040657;28;20528;-69
2022/12/19 03:09:31;;;;;;;55.03;26.85;;;;;;;;;;5040107;28;20213;-69
2022/12/19 03:12:01;;;;;;;57.90;26.92;;;;;;;;;;5040384;28;20268;-68
2022/12/19 03:14:28;;;;;;;54.30;25.63;;;;;;;;;;5040374;28;20630;-69
2022/12/19 03:16:54;;;;;;;53.00;25.67;;;;;;;;;;5040662;28;20506;-69
2022/12/19 03:19:20;;;;;;;54.30;26.58;;;;;;;;;;5040402;28;20197;-69
2022/12/19 03:21:48;;;;;;;52.35;25.92;;;;;;;;;;5040390;28;20206;-69
2022/12/19 03:24:16;;;;;;;55.00;25.77;;;;;;;;;;5040346;28;20205;-69
2022/12/19 03:26:45;;;;;;;54.35;26.42;;;;;;;;;;5040313;28;20199;-69
2022/12/19 03:29:15;;;;;;;56.42;28.75;;;;;;;;;;5039781;28;20218;-69
2022/12/19 03:31:42;;;;;;;52.65;26.35;;;;;;;;;;5040249;27;20204;-69
2022/12/19 03:34:12;;;;;;;53.13;26.38;;;;;;;;;;5040438;28;20202;-69
2022/12/19 03:36:40;;;;;;;53.65;27.42;;;;;;;;;;5040018;28;20198;-69
2022/12/19 03:39:09;;;;;;;52.38;26.73;;;;;;;;;;5039960;28;20269;-69
2022/12/19 03:44:22;;;;;;;51.80;26.20;;;;;;;;;;5039744;28;20254;-69
2022/12/19 03:46:51;;;;;;;57.72;27.23;;;;;;;;;;5039870;28;20205;-68
2022/12/19 03:49:17;;;;;;;56.15;27.00;;;;;;;;;;5039645;28;20389;-68
2022/12/19 03:51:48;;;;;;;55.65;26.33;;;;;;;;;;5039675;28;20378;-68
2022/12/19 03:54:17;;;;;;;61.13;25.60;;;;;;;;;;5040006;28;20262;-68
2022/12/19 03:56:46;;;;;;;52.08;25.83;;;;;;;;;;5039809;27;20419;-69
2022/12/19 03:59:16;;;;;;;49.97;26.33;;;;;;;;;;5038712;28;20205;-69
2022/12/19 04:01:43;;;;;;;50.47;26.13;;;;;;;;;;5039808;28;20513;-68
2022/12/19 04:04:11;;;;;;;57.10;26.08;;;;;;;;;;5039576;28;20432;-69
2022/12/19 04:06:38;;;;;;;52.80;25.48;;;;;;;;;;5039717;28;20218;-69
2022/12/19 04:09:05;;;;;;;58.67;27.60;;;;;;;;;;5039541;28;20390;-68
2022/12/19 04:11:39;;;;;;;51.95;24.15;;;;;;;;;;5039837;28;20202;-69
2022/12/19 04:14:08;;;;;;;54.15;26.00;;;;;;;;;;5039635;28;20197;-69
2022/12/19 04:16:38;;;;;;;52.60;26.40;;;;;;;;;;5039534;28;20509;-69
2022/12/19 04:19:08;;;;;;;57.45;27.40;;;;;;;;;;5039281;28;20208;-69
2022/12/19 04:21:36;;;;;;;54.25;25.95;;;;;;;;;;5039441;28;20206;-69
2022/12/19 04:24:05;;;;;;;55.08;26.65;;;;;;;;;;5039357;28;20198;-69
2022/12/19 04:26:33;;;;;;;53.53;25.35;;;;;;;;;;5039310;28;20228;-69
2022/12/19 04:29:02;;;;;;;59.00;27.73;;;;;;;;;;5039137;28;20548;-68
2022/12/19 04:31:28;;;;;;;58.33;26.15;;;;;;;;;;5039208;28;20443;-69
2022/12/19 04:33:55;;;;;;;52.88;26.33;;;;;;;;;;5039407;28;20521;-69
2022/12/19 04:36:21;;;;;;;57.05;26.92;;;;;;;;;;5039361;28;20194;-69
2022/12/19 04:38:47;;;;;;;62.00;27.73;;;;;;;;;;5039068;28;20204;-69
2022/12/19 04:41:14;;;;;;;53.90;26.50;;;;;;;;;;5039409;28;20205;-69
2022/12/19 04:43:40;;;;;;;54.55;27.27;;;;;;;;;;5039101;28;20209;-69
2022/12/19 04:46:07;;;;;;;59.05;27.08;;;;;;;;;;5038883;28;20504;-69
2022/12/19 04:48:34;;;;;;;55.28;26.58;;;;;;;;;;5039042;28;20210;-69
2022/12/19 04:51:01;;;;;;;61.92;27.63;;;;;;;;;;5039197;28;20533;-69
2022/12/19 04:53:27;;;;;;;57.67;26.05;;;;;;;;;;5039043;28;20548;-69
2022/12/19 04:55:59;;;;;;;54.03;25.35;;;;;;;;;;5038823;28;20193;-69
2022/12/19 04:58:26;;;;;;;56.05;26.27;;;;;;;;;;5038673;28;20204;-69
2022/12/19 05:00:52;;;;;;;58.47;25.67;;;;;;;;;;5039042;28;20205;-69
2022/12/19 05:03:19;;;;;;;57.40;26.50;;;;;;;;;;5038773;28;20204;-69
2022/12/19 05:05:46;;;;;;;59.17;26.42;;;;;;;;;;5038719;28;20213;-69
2022/12/19 05:08:12;;;;;;;60.85;27.17;;;;;;;;;;5038617;28;20205;-69
2022/12/19 05:10:38;;;;;;;54.53;26.73;;;;;;;;;;5042211;28;20212;-68
2022/12/19 05:13:04;;;;;;;61.17;26.98;;;;;;;;;;5042262;28;20286;-68
2022/12/19 05:15:31;;;;;;;60.10;25.88;;;;;;;;;;5042458;28;20197;-68
2022/12/19 05:17:57;;;;;;;57.40;27.33;;;;;;;;;;5042143;28;20553;-69
2022/12/19 05:20:25;;;;;;;59.00;26.85;;;;;;;;;;5042093;28;20222;-69
2022/12/19 05:22:51;;;;;;;59.20;26.23;;;;;;;;;;5042041;28;20198;-68
2022/12/19 05:25:18;;;;;;;55.58;25.65;;;;;;;;;;5042343;28;20403;-69
2022/12/19 05:27:44;;;;;;;59.70;26.65;;;;;;;;;;5041699;28;20226;-68
2022/12/19 05:30:11;;;;;;;55.95;26.25;;;;;;;;;;5042067;28;20838;-68
2022/12/19 05:32:37;;;;;;;61.90;27.63;;;;;;;;;;5041959;28;20198;-68
2022/12/19 05:35:04;;;;;;;58.10;26.70;;;;;;;;;;5041973;28;20389;-68
2022/12/19 05:37:31;;;;;;;58.70;26.65;;;;;;;;;;5041914;28;20198;-68
2022/12/19 05:39:57;;;;;;;54.58;25.73;;;;;;;;;;5041611;28;20398;-68
2022/12/19 05:42:24;;;;;;;59.28;26.73;;;;;;;;;;5041557;28;20213;-68
2022/12/19 05:44:51;;;;;;;58.40;27.00;;;;;;;;;;5041910;28;20198;-69
2022/12/19 05:47:19;;;;;;;56.17;27.45;;;;;;;;;;5041771;28;20548;-68
2022/12/19 05:49:45;;;;;;;57.60;26.95;;;;;;;;;;5041329;28;20505;-69
2022/12/19 05:52:11;;;;;;;54.70;26.50;;;;;;;;;;5042027;28;20202;-69
2022/12/19 05:54:39;;;;;;;58.28;27.10;;;;;;;;;;5041491;28;20208;-69
2022/12/19 05:57:05;;;;;;;61.13;27.48;;;;;;;;;;5041685;28;20194;-69
2022/12/19 05:59:31;;;;;;;62.08;26.75;;;;;;;;;;5041453;28;20395;-69
2022/12/19 06:01:58;;;;;;;63.88;28.17;;;;;;;;;;5041539;28;20232;-69
2022/12/19 06:04:24;;;;;;;57.85;27.10;;;;;;;;;;5041434;28;20519;-68
2022/12/19 06:06:50;;;;;;;52.53;26.15;;;;;;;;;;5041354;28;20683;-68
2022/12/19 06:09:16;;;;;;;58.35;27.90;;;;;;;;;;5041138;28;20394;-69
2022/12/19 06:11:44;;;;;;;58.45;27.35;;;;;;;;;;5041744;28;20197;-69
2022/12/19 06:14:10;;;;;;;56.55;26.48;;;;;;;;;;5041283;28;20518;-69
2022/12/19 06:16:37;;;;;;;54.42;27.05;;;;;;;;;;5040788;28;20194;-69
2022/12/19 06:19:03;;;;;;;59.55;27.08;;;;;;;;;;5040735;28;20206;-69
2022/12/19 06:21:29;;;;;;;54.47;27.48;;;;;;;;;;5039980;28;20456;-69
2022/12/19 06:23:55;;;;;;;57.17;25.95;;;;;;;;;;5040583;28;20197;-69
2022/12/19 06:26:22;;;;;;;56.03;26.15;;;;;;;;;;5040551;28;20229;-69
2022/12/19 06:28:50;;;;;;;55.92;26.60;;;;;;;;;;5040394;28;20239;-69
2022/12/19 06:31:17;;;;;;;55.83;27.23;;;;;;;;;;5040689;28;20197;-69
2022/12/19 06:33:43;;;;;;;53.70;26.20;;;;;;;;;;5040778;27;20632;-69
2022/12/19 06:36:11;;;;;;;60.58;28.05;;;;;;;;;;5040611;28;20206;-69
2022/12/19 06:38:37;;;;;;;57.80;26.70;;;;;;;;;;5040224;28;20206;-69
2022/12/19 06:43:47;;;;;;;60.03;25.92;;;;;;;;;;5040305;28;20193;-69
2022/12/19 06:46:15;;;;;;;57.90;26.33;;;;;;;;;;5040483;28;20481;-68
2022/12/19 06:48:41;;;;;;;57.20;26.73;;;;;;;;;;5040435;28;20205;-69
2022/12/19 06:51:07;;;;;;;55.38;25.02;;;;;;;;;;5040183;28;20277;-70
2022/12/19 06:53:34;;;;;;;60.42;26.17;;;;;;;;;;5040381;28;20548;-70
2022/12/19 06:56:00;;;;;;;58.33;26.83;;;;;;;;;;5040674;28;20194;-70
2022/12/19 06:58:27;;;;;;;54.55;26.30;;;;;;;;;;5039943;28;20198;-70
2022/12/19 07:00:53;;;;;;;53.03;25.33;;;;;;;;;;5040124;28;20204;-70
2022/12/19 07:03:22;;;;;;;57.05;25.50;;;;;;;;;;5040228;28;20519;-70
2022/12/19 07:05:49;;;;;;;60.63;25.95;;;;;;;;;;5040240;28;20214;-70
2022/12/19 07:08:16;;;;;;;58.08;26.35;;;;;;;;;;5039962;28;20273;-71
2022/12/19 07:10:42;;;;;;;56.10;25.88;;;;;;;;;;5040258;28;20198;-70
2022/12/19 07:13:08;;;;;;;60.78;26.83;;;;;;;;;;5040021;28;20205;-70
2022/12/19 07:15:35;;;;;;;58.10;26.42;;;;;;;;;;5040079;28;20198;-70
2022/12/19 07:18:03;;;;;;;53.45;24.58;;;;;;;;;;5039937;28;20272;-70
2022/12/19 07:20:32;;;;;;;57.97;26.38;;;;;;;;;;5039984;27;20214;-70
2022/12/19 07:22:58;;;;;;;55.97;26.20;;;;;;;;;;5040135;28;20204;-70
2022/12/19 07:25:24;;;;;;;61.10;25.67;;;;;;;;;;5039667;28;20368;-70
2022/12/19 07:27:52;;;;;;;54.72;27.08;;;;;;;;;;5039693;28;20224;-70
2022/12/19 07:30:18;;;;;;;57.90;26.63;;;;;;;;;;5039656;28;20198;-70
2022/12/19 07:32:44;;;;;;;59.13;26.00;;;;;;;;;;5039483;28;20204;-70
2022/12/19 07:35:11;;;;;;;60.65;26.90;;;;;;;;;;5040077;28;20204;-70
2022/12/19 07:37:38;;;;;;;73.30;28.45;;;;;;;;;;5040093;28;20197;-70
2022/12/19 07:40:05;;;;;;;65.80;29.38;;;;;;;;;;5039698;28;20204;-70
2022/12/19 07:42:32;;;;;;;61.65;27.90;;;;;;;;;;5039833;28;20204;-70
2022/12/19 07:45:00;;;;;;;59.30;27.45;;;;;;;;;;5039735;28;20221;-70
2022/12/19 07:47:26;;;;;;;60.15;27.67;;;;;;;;;;5039592;28;20218;-70
2022/12/19 07:49:53;;;;;;;61.70;28.20;;;;;;;;;;5039637;28;20202;-70
2022/12/19 07:52:19;;;;;;;58.78;27.67;;;;;;;;;;5039791;28;20198;-70
2022/12/19 07:54:47;;;;;;;62.55;26.95;;;;;;;;;;5039662;28;20412;-70
2022/12/19 07:57:13;;;;;;;61.17;27.30;;;;;;;;;;5039636;28;20200;-70
2022/12/19 07:59:39;;;;;;;62.13;27.77;;;;;;;;;;5039207;28;20197;-70
2022/12/19 08:02:06;;;;;;;60.45;26.63;;;;;;;;;;5039820;28;20493;-70
2022/12/19 08:04:32;;;;;;;63.75;28.77;;;;;;;;;;5039562;28;20198;-70
2022/12/19 08:06:58;;;;;;;61.05;29.55;;;;;;;;;;5039595;28;20560;-70
2022/12/19 08:09:26;;;;;;;69.75;30.45;;;;;;;;;;5039404;28;20218;-70
2022/12/19 08:11:54;;;;;;;62.90;29.63;;;;;;;;;;5039389;28;20550;-70
2022/12/19 08:14:20;;;;;;;65.57;29.20;;;;;;;;;;5039449;28;20198;-70
2022/12/19 08:16:47;;;;;;;64.40;29.60;;;;;;;;;;5039431;28;20220;-70
2022/12/19 08:19:13;;;;;;;67.68;28.83;;;;;;;;;;5039436;28;20212;-70
2022/12/19 08:21:39;;;;;;;59.58;27.88;;;;;;;;;;5039192;28;20205;-70
2022/12/19 08:24:06;;;;;;;63.28;30.60;;;;;;;;;;5039414;28;20201;-70
2022/12/19 08:26:32;;;;;;;62.92;28.42;;;;;;;;;;5039110;28;20412;-70
2022/12/19 08:29:00;;;;;;;69.60;29.70;;;;;;;;;;5038846;28;20224;-70
2022/12/19 08:31:27;;;;;;;73.75;30.52;;;;;;;;;;5039249;28;20197;-70
2022/12/19 08:33:54;;;;;;;66.68;29.42;;;;;;;;;;5039005;28;20198;-70
2022/12/19 08:36:21;;;;;;;58.63;29.25;;;;;;;;;;5039109;28;20238;-70
2022/12/19 08:38:48;;;;;;;64.40;30.25;;;;;;;;;;5038924;28;20198;-70
2022/12/19 08:41:14;;;;;;;62.53;27.67;;;;;;;;;;5039080;28;20207;-70
2022/12/19 08:43:40;;;;;;;58.65;28.48;;;;;;;;;;5040499;28;20224;-70
2022/12/19 08:46:09;;;;;;;65.32;29.98;;;;;;;;;;5045756;27;20204;-70
2022/12/19 08:48:36;;;;;;;62.90;28.73;;;;;;;;;;5045523;28;20393;-70
2022/12/19 08:51:04;;;;;;;62.92;29.10;;;;;;;;;;5045673;27;20385;-70
2022/12/19 08:53:31;;;;;;;62.63;28.55;;;;;;;;;;5045472;27;20392;-70
2022/12/19 08:55:57;;;;;;;63.10;28.23;;;;;;;;;;5045090;27;20198;-70
2022/12/19 08:58:24;;;;;;;57.75;28.33;;;;;;;;;;5045145;27;20205;-70
2022/12/19 09:00:51;;;;;;;58.53;27.85;;;;;;;;;;5045664;27;20198;-70
2022/12/19 09:03:19;;;;;;;61.22;29.05;;;;;;;;;;5045480;27;20426;-70
2022/12/19 09:05:46;;;;;;;71.63;30.40;;;;;;;;;;5045350;27;20204;-70
2022/12/19 09:08:13;;;;;;;58.53;28.10;;;;;;;;;;5045238;27;20217;-70
2022/12/19 09:10:39;;;;;;;70.22;31.33;;;;;;;;;;5045699;27;20198;-70
2022/12/19 09:13:05;;;;;;;64.53;30.05;;;;;;;;;;5045478;27;20202;-70
2022/12/19 09:15:31;;;;;;;59.55;27.85;;;;;;;;;;5045261;27;20198;-70
2022/12/19 09:17:58;;;;;;;66.35;29.65;;;;;;;;;;5045254;27;20197;-70
2022/12/19 09:20:25;;;;;;;57.00;27.05;;;;;;;;;;5037762;27;20221;-70
2022/12/19 09:22:52;;;;;;;57.97;28.20;;;;;;;;;;5033469;27;20210;-69
2022/12/19 09:25:18;;;;;;;62.80;29.35;;;;;;;;;;5037732;28;20591;-69
2022/12/19 09:27:45;;;;;;;59.92;28.77;;;;;;;;;;5028915;28;20238;-69
2022/12/19 09:30:12;;;;;;;59.72;29.02;;;;;;;;;;5028800;27;20224;-70
2022/12/19 09:32:39;;;;;;;59.42;28.70;;;;;;;;;;5031747;28;20458;-70
2022/12/19 09:35:06;;;;;;;64.30;29.85;;;;;;;;;;5032722;27;20216;-70
2022/12/19 09:37:34;;;;;;;62.78;29.08;;;;;;;;;;5034986;28;20202;-70
2022/12/19 09:40:00;;;;;;;69.90;30.25;;;;;;;;;;5038886;27;20300;-70
2022/12/19 09:42:37;;;;;;;61.50;28.63;;;;;;;;;;5038647;27;20209;-70
2022/12/19 09:45:08;;;;;;;65.60;30.42;;;;;;;;;;5038863;27;20210;-70
2022/12/19 09:47:34;;;;;;;70.32;31.73;;;;;;;;;;5019298;28;20230;-70
2022/12/19 09:50:01;;;;;;;73.65;32.63;;;;;;;;;;5018898;28;20210;-70
2022/12/19 09:52:29;;;;;;;71.10;33.80;;;;;;;;;;5037921;28;20216;-70
2022/12/19 09:55:00;;;;;;;60.08;29.35;;;;;;;;;;5029877;27;20410;-70
2022/12/19 09:57:34;;;;;;;63.78;31.42;;;;;;;;;;5029734;28;20306;-70
2022/12/19 10:00:02;;;;;;;68.68;29.88;;;;;;;;;;5024866;28;20217;-70
2022/12/19 10:02:34;;;;;;;60.83;30.02;;;;;;;;;;5035143;28;20237;-71
2022/12/19 10:05:03;;;;;;;60.22;27.92;;;;;;;;;;5035445;28;20205;-70
2022/12/19 10:07:30;;;;;;;63.40;30.52;;;;;;;;;;5035036;28;20400;-69
2022/12/19 10:09:57;;;;;;;63.67;29.80;;;;;;;;;;5030342;28;20210;-70
2022/12/19 10:12:33;;;;;;;62.75;29.80;;;;;;;;;;5025101;28;20439;-69
2022/12/19 10:15:02;;;;;;;65.80;29.70;;;;;;;;;;5027389;28;20210;-69
2022/12/19 10:17:33;;;;;;;67.43;28.90;;;;;;;;;;5026627;28;20213;-69
2022/12/19 10:20:11;;;;;;;59.42;29.50;;;;;;;;;;5031803;28;20316;-70
2022/12/19 10:22:41;;;;;;;59.28;29.10;;;;;;;;;;5032421;28;20209;-70
2022/12/19 10:25:17;;;;;;;58.15;28.42;;;;;;;;;;5027239;28;20361;-70
2022/12/19 10:27:46;;;;;;;57.67;28.50;;;;;;;;;;5035150;28;20240;-70
2022/12/19 10:30:14;;;;;;;59.40;30.05;;;;;;;;;;5034234;28;20401;-70
2022/12/19 10:32:43;;;;;;;62.65;30.10;;;;;;;;;;5035175;28;20222;-69
2022/12/19 10:35:13;;;;;;;68.05;31.13;;;;;;;;;;5034713;28;20217;-70
2022/12/19 10:37:43;;;;;;;64.10;29.48;;;;;;;;;;5035136;28;20243;-70
2022/12/19 10:40:13;;;;;;;64.10;30.38;;;;;;;;;;5034857;28;20215;-70
2022/12/19 10:42:44;;;;;;;61.97;30.45;;;;;;;;;;5034605;28;20216;-69
2022/12/19 10:45:13;;;;;;;66.15;32.38;;;;;;;;;;5034374;28;20431;-70
2022/12/19 10:47:40;;;;;;;58.17;29.13;;;;;;;;;;5034465;28;20290;-70
2022/12/19 10:50:11;;;;;;;58.00;29.98;;;;;;;;;;5034481;28;20224;-70
2022/12/19 10:52:46;;;;;;;60.13;29.85;;;;;;;;;;5034528;28;20210;-70
2022/12/19 10:55:22;;;;;;;52.72;28.63;;;;;;;;;;5035619;28;20228;-71
2022/12/19 10:57:48;;;;;;;54.67;29.58;;;;;;;;;;5037763;28;20194;-70
2022/12/19 11:00:15;;;;;;;56.35;28.27;;;;;;;;;;5036749;28;20206;-70
2022/12/19 11:02:43;;;;;;;51.55;29.35;;;;;;;;;;5037444;28;20212;-70
2022/12/19 11:05:21;;;;;;;57.10;30.10;;;;;;;;;;5037275;28;20206;-70
2022/12/19 11:07:58;;;;;;;57.38;30.48;;;;;;;;;;5036643;28;20428;-70
2022/12/19 11:10:37;;;;;;;52.47;28.75;;;;;;;;;;5037388;28;20212;-70
2022/12/19 11:13:15;;;;;;;56.55;29.90;;;;;;;;;;5037556;27;20292;-70
2022/12/19 11:18:45;;;;;;;55.28;28.63;;;;;;;;;;5018709;28;20592;-70
2022/12/19 11:21:16;;;;;;;57.10;29.25;;;;;;;;;;5017529;28;20214;-70
2022/12/19 11:23:47;;;;;;;53.70;29.02;;;;;;;;;;5017734;28;20206;-70
2022/12/19 11:26:26;;;;;;;56.13;28.02;;;;;;;;;;5017616;28;20210;-71
2022/12/19 11:28:53;;;;;;;57.10;29.30;;;;;;;;;;5016774;28;20363;-70
2022/12/19 11:31:21;;;;;;;58.15;30.83;;;;;;;;;;5036417;28;20513;-70
2022/12/19 11:33:53;;;;;;;57.08;29.45;;;;;;;;;;5040047;28;20198;-71
2022/12/19 11:36:28;;;;;;;55.10;29.73;;;;;;;;;;5040106;28;20212;-70
2022/12/19 11:38:55;;;;;;;65.38;27.65;;;;;;;;;;5039553;28;20208;-60
2022/12/19 11:41:28;;;;;;;59.67;30.92;;;;;;;;;;5039974;28;20510;-60
2022/12/19 11:43:57;;;;;;;56.33;30.48;;;;;;;;;;5039747;28;20197;-59
2022/12/19 11:46:28;;;;;;;56.42;30.38;;;;;;;;;;5039771;28;20198;-59
2022/12/19 11:48:56;;;;;;;57.72;29.13;;;;;;;;;;5039534;28;20224;-59
2022/12/19 11:51:26;;;;;;;58.05;29.33;;;;;;;;;;5039768;28;20204;-59
2022/12/19 11:53:56;;;;;;;58.22;29.45;;;;;;;;;;5039889;28;20197;-59
2022/12/19 11:56:26;;;;;;;52.42;28.10;;;;;;;;;;5039970;28;20245;-59
2022/12/19 11:58:54;;;;;;;59.58;29.85;;;;;;;;;;5039582;28;20221;-59
2022/12/19 12:01:26;;;;;;;50.55;28.33;;;;;;;;;;5039751;28;20197;-60
2022/12/19 12:04:01;;;;;;;52.72;28.83;;;;;;;;;;5038808;28;20396;-59
2022/12/19 12:06:30;;;;;;;55.67;29.65;;;;;;;;;;5037957;28;20197;-59
2022/12/19 12:08:59;;;;;;;60.25;29.05;;;;;;;;;;5038503;27;20214;-59
2022/12/19 12:11:29;;;;;;;57.13;29.55;;;;;;;;;;5038327;28;20235;-60
2022/12/19 12:14:15;;;;;;;59.50;28.48;;;;;;;;;;5039336;28;20404;-59
2022/12/19 12:16:46;;;;;;;50.72;27.95;;;;;;;;;;5039224;28;20202;-59
2022/12/19 12:19:17;;;;;;;54.08;28.80;;;;;;;;;;5038103;28;20194;-60
2022/12/19 12:21:48;;;;;;;56.28;28.98;;;;;;;;;;5039174;28;20217;-59
2022/12/19 12:24:18;;;;;;;50.95;28.75;;;;;;;;;;5039287;28;20190;-60
2022/12/19 12:26:49;;;;;;;53.20;27.10;;;;;;;;;;5039565;28;20269;-59
2022/12/19 12:29:19;;;;;;;51.13;27.70;;;;;;;;;;5038921;28;20256;-58
2022/12/19 12:31:49;;;;;;;46.42;26.95;;;;;;;;;;5038995;28;20206;-58
2022/12/19 12:34:36;;;;;;;44.67;25.27;;;;;;;;;;5039341;28;20393;-58
2022/12/19 12:37:09;;;;;;;40.78;24.35;;;;;;;;;;5041991;28;20209;-59
2022/12/19 12:39:39;;;;;;;42.47;25.00;;;;;;;;;;5038833;27;20277;-59
2022/12/19 12:42:12;;;;;;;45.75;25.40;;;;;;;;;;5039435;28;20204;-59
2022/12/19 12:44:39;;;;;;;45.53;24.65;;;;;;;;;;5039172;28;20202;-59
2022/12/19 12:47:12;;;;;;;46.20;25.77;;;;;;;;;;5039013;28;20393;-59
2022/12/19 12:49:40;;;;;;;42.15;25.05;;;;;;;;;;5039021;28;20197;-59
2022/12/19 12:52:08;;;;;;;45.35;25.55;;;;;;;;;;5039141;28;20197;-59
2022/12/19 12:54:36;;;;;;;45.33;25.58;;;;;;;;;;5038656;28;20502;-59
2022/12/19 12:57:03;;;;;;;42.45;25.25;;;;;;;;;;5038752;28;20205;-58
2022/12/19 12:59:31;;;;;;;42.63;24.02;;;;;;;;;;5038617;28;20194;-60
2022/12/19 13:01:58;;;;;;;43.55;24.63;;;;;;;;;;5038655;28;20501;-59
2022/12/19 13:04:30;;;;;;;41.17;25.13;;;;;;;;;;5038806;28;20397;-59
2022/12/19 13:07:17;;;;;;;45.65;26.05;;;;;;;;;;5038706;28;20211;-59
2022/12/19 13:09:43;;;;;;;51.47;26.27;;;;;;;;;;5041397;28;20392;-59
2022/12/19 13:15:15;;;;;;;46.85;26.77;;;;;;;;;;5038647;28;20197;-60
2022/12/19 13:18:07;;;;;;;49.85;27.67;;;;;;;;;;5038496;28;20194;-60
2022/12/19 13:20:41;;;;;;;47.95;26.73;;;;;;;;;;5038504;28;20227;-60
2022/12/19 13:23:20;;;;;;;56.50;29.73;;;;;;;;;;5038594;28;20567;-59
2022/12/19 13:25:48;;;;;;;44.28;27.00;;;;;;;;;;5038561;28;20204;-59
2022/12/19 13:28:15;;;;;;;54.20;30.85;;;;;;;;;;5038428;28;20222;-59
2022/12/19 13:31:09;;;;;;;51.67;29.08;;;;;;;;;;5040208;28;20205;-59
2022/12/19 13:33:46;;;;;;;51.08;28.00;;;;;;;;;;5041810;28;20220;-59
2022/12/19 13:36:27;;;;;;;53.92;28.08;;;;;;;;;;5041737;28;20277;-59
2022/12/19 13:38:53;;;;;;;51.45;27.58;;;;;;;;;;5041193;28;20194;-60
2022/12/19 13:44:12;;;;;;;47.13;27.27;;;;;;;;;;5041612;28;20192;-59
2022/12/19 13:46:40;;;;;;;70.13;34.92;;;;;;;;;;5041566;28;20206;-59
2022/12/19 13:49:10;;;;;;;46.13;26.13;;;;;;;;;;5041691;28;20225;-59
2022/12/19 13:51:41;;;;;;;52.38;29.02;;;;;;;;;;5041796;28;20235;-59
2022/12/19 13:54:15;;;;;;;53.70;28.40;;;;;;;;;;5041808;27;20198;-59
2022/12/19 13:56:42;;;;;;;52.20;28.35;;;;;;;;;;5041446;28;20198;-59
2022/12/19 13:59:09;;;;;;;55.95;28.75;;;;;;;;;;5041179;28;20221;-59
2022/12/19 14:01:36;;;;;;;50.38;28.25;;;;;;;;;;5041392;28;20198;-59
2022/12/19 14:04:04;;;;;;;51.40;28.02;;;;;;;;;;5041828;28;20389;-59
2022/12/19 14:06:40;;;;;;;54.28;28.05;;;;;;;;;;5041926;28;20264;-62
2022/12/19 14:09:08;;;;;;;58.38;28.50;;;;;;;;;;5041129;28;20259;-58
2022/12/19 14:11:35;;;;;;;46.70;26.77;;;;;;;;;;5041522;28;20293;-60
2022/12/19 14:16:52;;;;;;;50.67;29.23;;;;;;;;;;5003159;28;20256;-59
2022/12/19 14:19:19;;;;;;;57.97;29.58;;;;;;;;;;5041017;28;20385;-59
2022/12/19 14:21:47;;;;;;;59.40;31.42;;;;;;;;;;5041145;28;20216;-59
2022/12/19 14:24:15;;;;;;;52.40;29.20;;;;;;;;;;5041072;28;20197;-59
2022/12/19 14:26:43;;;;;;;55.33;30.05;;;;;;;;;;5041051;28;20198;-59
2022/12/19 14:29:12;;;;;;;62.85;32.83;;;;;;;;;;5040619;28;20226;-60
2022/12/19 14:31:39;;;;;;;62.53;31.83;;;;;;;;;;5041207;28;20201;-59
2022/12/19 14:34:06;;;;;;;64.03;34.75;;;;;;;;;;5041034;28;20202;-59
2022/12/19 14:36:33;;;;;;;60.40;32.00;;;;;;;;;;5041504;28;20197;-59
2022/12/19 14:39:01;;;;;;;57.05;31.50;;;;;;;;;;5040674;28;20202;-59
2022/12/19 14:44:19;;;;;;;61.17;31.30;;;;;;;;;;5040770;28;20247;-58
2022/12/19 14:46:58;;;;;;;52.05;30.35;;;;;;;;;;5040609;28;20198;-59